PWSweather.com
Personal Weather Stations
Station Observations
GIRWX1
Presovsky Kraj, GiraltovceSK

Presovsky KrajGiraltovceSK

Lat: 49.118, Lon: 21.52

Elevation: 630

Station Type: wh1080

http://www.meteogiraltovce.wz.cz/

High Low Average
Temperature 43.7°F6.5°C 38.7°F3.7°C 41.3°F5.2°C
Dew Point 39.2°F4.0°C 29.9°F-1.2°C 33.8°F1.0°C
Winds 19.7 mph 31.7 kmh 3.0 mph 4.8 kmh 9.0 mph S14.5 kmh S
Wind Gusts 29.8 mph48.0 kmh 4.5 mph7.2 kmh 14.0 mph22.5 kmh
Humidity 84% 60% 75%
Pressure 30.03 in1016.9 mb 29.72 in1006.4 mb -
Precipitation 0.00 in0.0 mm - -
Hour Temp Dew Point Humidity Winds Wind Gusts Pressure Precip Precip Rate Daily Precip Total
12:00 AM 43.3°F6.3°C 30.8°F-0.7°C 61% 5.4 mph SSW8.7 kmh SSW 9.2 mph14.8 kmh 30.03 in1016.9 mb 0.00 in0.0 mm 0.00 in0.0 mm 0.00 in0.0 mm
12:05 AM 43.3°F6.3°C 30.8°F-0.7°C 61% 8.3 mph S13.4 kmh S 9.8 mph15.8 kmh 30.03 in1016.9 mb 0.00 in0.0 mm 0.00 in0.0 mm 0.00 in0.0 mm
12:10 AM 43.4°F6.3°C 30.9°F-0.6°C 61% 6.8 mph S10.9 kmh S 9.8 mph15.8 kmh 30.03 in1016.9 mb 0.00 in0.0 mm 0.00 in0.0 mm 0.00 in0.0 mm
12:15 AM 43.4°F6.3°C 30.9°F-0.6°C 61% 7.4 mph S11.9 kmh S 9.2 mph14.8 kmh 30.03 in1016.9 mb 0.00 in0.0 mm 0.00 in0.0 mm 0.00 in0.0 mm
12:20 AM 43.3°F6.3°C 30.8°F-0.7°C 61% 8.4 mph S13.5 kmh S 10.7 mph17.2 kmh 30.03 in1016.9 mb 0.00 in0.0 mm 0.00 in0.0 mm 0.00 in0.0 mm
12:25 AM 43.5°F6.4°C 31.0°F-0.6°C 61% 7.1 mph S11.4 kmh S 11.4 mph18.3 kmh 30.02 in1016.6 mb 0.00 in0.0 mm 0.00 in0.0 mm 0.00 in0.0 mm
12:30 AM 43.5°F6.4°C 30.8°F-0.7°C 61% 8.6 mph S13.8 kmh S 13.0 mph20.9 kmh 30.02 in1016.6 mb 0.00 in0.0 mm 0.00 in0.0 mm 0.00 in0.0 mm
12:35 AM 43.6°F6.4°C 30.6°F-0.8°C 60% 6.1 mph S9.8 kmh S 8.3 mph13.4 kmh 30.01 in1016.3 mb 0.00 in0.0 mm 0.00 in0.0 mm 0.00 in0.0 mm
12:40 AM 43.7°F6.5°C 30.7°F-0.7°C 60% 9.5 mph SE15.3 kmh SE 14.5 mph23.3 kmh 30.01 in1016.3 mb 0.00 in0.0 mm 0.00 in0.0 mm 0.00 in0.0 mm
12:45 AM 43.7°F6.5°C 30.7°F-0.7°C 60% 8.6 mph SSE13.8 kmh SSE 12.1 mph19.5 kmh 30.01 in1016.3 mb 0.00 in0.0 mm 0.00 in0.0 mm 0.00 in0.0 mm
12:50 AM 43.7°F6.5°C 30.7°F-0.7°C 60% 7.7 mph S12.4 kmh S 13.6 mph21.9 kmh 30.01 in1016.3 mb 0.00 in0.0 mm 0.00 in0.0 mm 0.00 in0.0 mm
12:55 AM 43.7°F6.5°C 30.7°F-0.7°C 60% 7.8 mph S12.6 kmh S 11.4 mph18.3 kmh 30.01 in1016.3 mb 0.00 in0.0 mm 0.00 in0.0 mm 0.00 in0.0 mm
01:00 AM 43.7°F6.5°C 30.7°F-0.7°C 60% 8.8 mph S14.2 kmh S 11.4 mph18.3 kmh 30.00 in1015.9 mb 0.00 in0.0 mm 0.00 in0.0 mm 0.00 in0.0 mm
01:05 AM 43.7°F6.5°C 30.7°F-0.7°C 60% 8.0 mph S12.9 kmh S 11.4 mph18.3 kmh 30.00 in1015.9 mb 0.00 in0.0 mm 0.00 in0.0 mm 0.00 in0.0 mm
01:10 AM 43.5°F6.4°C 30.6°F-0.8°C 60% 5.8 mph SSW9.3 kmh SSW 9.8 mph15.8 kmh 30.00 in1015.9 mb 0.00 in0.0 mm 0.00 in0.0 mm 0.00 in0.0 mm
01:15 AM 43.4°F6.3°C 30.5°F-0.8°C 60% 5.4 mph SSW8.7 kmh SSW 8.3 mph13.4 kmh 30.00 in1015.9 mb 0.00 in0.0 mm 0.00 in0.0 mm 0.00 in0.0 mm
01:20 AM 43.3°F6.3°C 30.4°F-0.9°C 60% 5.7 mph S9.2 kmh S 9.2 mph14.8 kmh 29.99 in1015.6 mb 0.00 in0.0 mm 0.00 in0.0 mm 0.00 in0.0 mm
01:25 AM 43.3°F6.3°C 30.4°F-0.9°C 60% 7.1 mph S11.4 kmh S 10.7 mph17.2 kmh 29.99 in1015.6 mb 0.00 in0.0 mm 0.00 in0.0 mm 0.00 in0.0 mm
01:30 AM 43.3°F6.3°C 30.4°F-0.9°C 60% 8.6 mph SE13.8 kmh SE 10.7 mph17.2 kmh 29.99 in1015.6 mb 0.00 in0.0 mm 0.00 in0.0 mm 0.00 in0.0 mm
01:35 AM 43.3°F6.3°C 30.4°F-0.9°C 60% 7.9 mph S12.7 kmh S 11.4 mph18.3 kmh 29.99 in1015.6 mb 0.00 in0.0 mm 0.00 in0.0 mm 0.00 in0.0 mm
01:40 AM 43.3°F6.3°C 30.6°F-0.8°C 61% 7.6 mph S12.2 kmh S 10.7 mph17.2 kmh 29.98 in1015.2 mb 0.00 in0.0 mm 0.00 in0.0 mm 0.00 in0.0 mm
01:45 AM 43.2°F6.2°C 30.7°F-0.7°C 61% 5.6 mph S9.0 kmh S 8.3 mph13.4 kmh 29.98 in1015.2 mb 0.00 in0.0 mm 0.00 in0.0 mm 0.00 in0.0 mm
01:50 AM 43.2°F6.2°C 30.6°F-0.8°C 61% 4.2 mph SSE6.8 kmh SSE 7.6 mph12.2 kmh 29.98 in1015.2 mb 0.00 in0.0 mm 0.00 in0.0 mm 0.00 in0.0 mm
01:55 AM 43.2°F6.2°C 30.6°F-0.8°C 61% 3.0 mph SSE4.8 kmh SSE 4.5 mph7.2 kmh 29.98 in1015.2 mb 0.00 in0.0 mm 0.00 in0.0 mm 0.00 in0.0 mm
02:00 AM 43.2°F6.2°C 30.6°F-0.8°C 61% 4.0 mph S6.4 kmh S 5.4 mph8.7 kmh 29.97 in1014.9 mb 0.00 in0.0 mm 0.00 in0.0 mm 0.00 in0.0 mm
02:05 AM 43.2°F6.2°C 30.6°F-0.8°C 61% 3.8 mph SSW6.1 kmh SSW 4.5 mph7.2 kmh 29.97 in1014.9 mb 0.00 in0.0 mm 0.00 in0.0 mm 0.00 in0.0 mm
02:10 AM 43.0°F6.1°C 30.5°F-0.8°C 61% 4.0 mph SSW6.4 kmh SSW 6.9 mph11.1 kmh 29.97 in1014.9 mb 0.00 in0.0 mm 0.00 in0.0 mm 0.00 in0.0 mm
02:15 AM 42.9°F6.1°C 30.3°F-0.9°C 61% 4.0 mph S6.4 kmh S 5.4 mph8.7 kmh 29.97 in1014.9 mb 0.00 in0.0 mm 0.00 in0.0 mm 0.00 in0.0 mm
02:20 AM 42.6°F5.9°C 30.3°F-0.9°C 62% 5.1 mph SSW8.2 kmh SSW 7.6 mph12.2 kmh 29.96 in1014.6 mb 0.00 in0.0 mm 0.00 in0.0 mm 0.00 in0.0 mm
02:25 AM 42.4°F5.8°C 30.3°F-0.9°C 62% 5.1 mph SW8.2 kmh SW 7.6 mph12.2 kmh 29.96 in1014.6 mb 0.00 in0.0 mm 0.00 in0.0 mm 0.00 in0.0 mm
02:30 AM 42.2°F5.7°C 30.1°F-1.1°C 62% 5.7 mph SW9.2 kmh SW 9.8 mph15.8 kmh 29.96 in1014.6 mb 0.00 in0.0 mm 0.00 in0.0 mm 0.00 in0.0 mm
02:35 AM 42.0°F5.6°C 30.0°F-1.1°C 62% 5.2 mph S8.4 kmh S 6.9 mph11.1 kmh 29.97 in1014.9 mb 0.00 in0.0 mm 0.00 in0.0 mm 0.00 in0.0 mm
02:40 AM 41.9°F5.5°C 30.1°F-1.1°C 63% 4.8 mph SSW7.7 kmh SSW 6.9 mph11.1 kmh 29.96 in1014.6 mb 0.00 in0.0 mm 0.00 in0.0 mm 0.00 in0.0 mm
02:45 AM 41.7°F5.4°C 30.1°F-1.1°C 63% 5.8 mph SSW9.3 kmh SSW 9.8 mph15.8 kmh 29.96 in1014.6 mb 0.00 in0.0 mm 0.00 in0.0 mm 0.00 in0.0 mm
02:50 AM 41.5°F5.3°C 29.9°F-1.2°C 63% 6.2 mph S10.0 kmh S 9.2 mph14.8 kmh 29.96 in1014.6 mb 0.00 in0.0 mm 0.00 in0.0 mm 0.00 in0.0 mm
02:55 AM 41.6°F5.3°C 30.0°F-1.1°C 63% 6.0 mph SW9.7 kmh SW 9.2 mph14.8 kmh 29.96 in1014.6 mb 0.00 in0.0 mm 0.00 in0.0 mm 0.00 in0.0 mm
03:00 AM 41.7°F5.4°C 30.1°F-1.1°C 63% 5.1 mph S8.2 kmh S 6.9 mph11.1 kmh 29.95 in1014.2 mb 0.00 in0.0 mm 0.00 in0.0 mm 0.00 in0.0 mm
03:05 AM 41.8°F5.4°C 30.2°F-1.0°C 63% 5.7 mph S9.2 kmh S 12.1 mph19.5 kmh 29.95 in1014.2 mb 0.00 in0.0 mm 0.00 in0.0 mm 0.00 in0.0 mm
03:10 AM 42.0°F5.6°C 30.4°F-0.9°C 63% 4.9 mph S7.9 kmh S 6.9 mph11.1 kmh 29.95 in1014.2 mb 0.00 in0.0 mm 0.00 in0.0 mm 0.00 in0.0 mm
03:15 AM 42.2°F5.7°C 30.5°F-0.8°C 63% 7.6 mph S12.2 kmh S 12.1 mph19.5 kmh 29.95 in1014.2 mb 0.00 in0.0 mm 0.00 in0.0 mm 0.00 in0.0 mm
03:20 AM 42.4°F5.8°C 30.7°F-0.7°C 63% 9.2 mph S14.8 kmh S 13.6 mph21.9 kmh 29.95 in1014.2 mb 0.00 in0.0 mm 0.00 in0.0 mm 0.00 in0.0 mm
03:25 AM 42.5°F5.8°C 30.5°F-0.8°C 62% 11.2 mph S18.0 kmh S 15.9 mph25.6 kmh 29.94 in1013.9 mb 0.00 in0.0 mm 0.00 in0.0 mm 0.00 in0.0 mm
03:30 AM 42.6°F5.9°C 30.5°F-0.8°C 62% 11.7 mph S18.8 kmh S 16.8 mph27.0 kmh 29.94 in1013.9 mb 0.00 in0.0 mm 0.00 in0.0 mm 0.00 in0.0 mm
03:35 AM 42.5°F5.8°C 30.4°F-0.9°C 62% 12.1 mph SSW19.5 kmh SSW 18.3 mph29.5 kmh 29.94 in1013.9 mb 0.00 in0.0 mm 0.00 in0.0 mm 0.00 in0.0 mm
03:40 AM 42.4°F5.8°C 30.4°F-0.9°C 62% 12.5 mph S20.1 kmh S 20.6 mph33.2 kmh 29.94 in1013.9 mb 0.00 in0.0 mm 0.00 in0.0 mm 0.00 in0.0 mm
03:45 AM 42.4°F5.8°C 30.3°F-0.9°C 62% 12.6 mph S20.3 kmh S 16.8 mph27.0 kmh 29.94 in1013.9 mb 0.00 in0.0 mm 0.00 in0.0 mm 0.00 in0.0 mm
03:50 AM 42.3°F5.7°C 30.2°F-1.0°C 62% 10.9 mph S17.5 kmh S 15.2 mph24.5 kmh 29.94 in1013.9 mb 0.00 in0.0 mm 0.00 in0.0 mm 0.00 in0.0 mm
03:55 AM 42.3°F5.7°C 30.2°F-1.0°C 62% 12.0 mph S19.3 kmh S 15.2 mph24.5 kmh 29.93 in1013.5 mb 0.00 in0.0 mm 0.00 in0.0 mm 0.00 in0.0 mm
04:00 AM 42.3°F5.7°C 30.2°F-1.0°C 62% 10.6 mph S17.1 kmh S 15.2 mph24.5 kmh 29.93 in1013.5 mb 0.00 in0.0 mm 0.00 in0.0 mm 0.00 in0.0 mm
04:05 AM 42.3°F5.7°C 30.2°F-1.0°C 62% 9.8 mph S15.8 kmh S 13.0 mph20.9 kmh 29.93 in1013.5 mb 0.00 in0.0 mm 0.00 in0.0 mm 0.00 in0.0 mm
04:10 AM 42.3°F5.7°C 30.2°F-1.0°C 62% 11.0 mph S17.7 kmh S 16.8 mph27.0 kmh 29.93 in1013.5 mb 0.00 in0.0 mm 0.00 in0.0 mm 0.00 in0.0 mm
04:15 AM 42.3°F5.7°C 30.2°F-1.0°C 62% 13.0 mph SSE20.9 kmh SSE 19.0 mph30.6 kmh 29.93 in1013.5 mb 0.00 in0.0 mm 0.00 in0.0 mm 0.00 in0.0 mm
04:20 AM 42.3°F5.7°C 30.3°F-0.9°C 62% 10.7 mph S17.2 kmh S 15.9 mph25.6 kmh 29.92 in1013.2 mb 0.00 in0.0 mm 0.00 in0.0 mm 0.00 in0.0 mm
04:25 AM 42.3°F5.7°C 30.6°F-0.8°C 63% 13.4 mph S21.6 kmh S 18.3 mph29.5 kmh 29.92 in1013.2 mb 0.00 in0.0 mm 0.00 in0.0 mm 0.00 in0.0 mm
04:30 AM 42.3°F5.7°C 30.6°F-0.8°C 63% 11.5 mph S18.5 kmh S 15.2 mph24.5 kmh 29.92 in1013.2 mb 0.00 in0.0 mm 0.00 in0.0 mm 0.00 in0.0 mm
04:35 AM 42.4°F5.8°C 30.7°F-0.7°C 63% 10.2 mph S16.4 kmh S 14.5 mph23.3 kmh 29.92 in1013.2 mb 0.00 in0.0 mm 0.00 in0.0 mm 0.00 in0.0 mm
04:40 AM 42.4°F5.8°C 30.7°F-0.7°C 63% 10.0 mph S16.1 kmh S 13.0 mph20.9 kmh 29.92 in1013.2 mb 0.00 in0.0 mm 0.00 in0.0 mm 0.00 in0.0 mm
04:45 AM 42.4°F5.8°C 30.7°F-0.7°C 63% 10.3 mph S16.6 kmh S 15.2 mph24.5 kmh 29.92 in1013.2 mb 0.00 in0.0 mm 0.00 in0.0 mm 0.00 in0.0 mm
04:50 AM 42.4°F5.8°C 30.7°F-0.7°C 63% 7.8 mph S12.6 kmh S 10.7 mph17.2 kmh 29.92 in1013.2 mb 0.00 in0.0 mm 0.00 in0.0 mm 0.00 in0.0 mm
04:55 AM 42.3°F5.7°C 30.6°F-0.8°C 63% 7.4 mph S11.9 kmh S 13.0 mph20.9 kmh 29.91 in1012.9 mb 0.00 in0.0 mm 0.00 in0.0 mm 0.00 in0.0 mm
05:00 AM 42.3°F5.7°C 30.6°F-0.8°C 63% 6.2 mph S10.0 kmh S 9.8 mph15.8 kmh 29.91 in1012.9 mb 0.00 in0.0 mm 0.00 in0.0 mm 0.00 in0.0 mm
05:05 AM 42.3°F5.7°C 30.6°F-0.8°C 63% 8.1 mph SSE13.0 kmh SSE 10.7 mph17.2 kmh 29.91 in1012.9 mb 0.00 in0.0 mm 0.00 in0.0 mm 0.00 in0.0 mm
05:10 AM 42.3°F5.7°C 30.6°F-0.8°C 63% 7.1 mph SSE11.4 kmh SSE 12.1 mph19.5 kmh 29.90 in1012.5 mb 0.00 in0.0 mm 0.00 in0.0 mm 0.00 in0.0 mm
05:15 AM 42.1°F5.6°C 30.8°F-0.7°C 64% 8.4 mph S13.5 kmh S 11.4 mph18.3 kmh 29.90 in1012.5 mb 0.00 in0.0 mm 0.00 in0.0 mm 0.00 in0.0 mm
05:20 AM 42.1°F5.6°C 30.8°F-0.7°C 64% 6.7 mph S10.8 kmh S 8.3 mph13.4 kmh 29.90 in1012.5 mb 0.00 in0.0 mm 0.00 in0.0 mm 0.00 in0.0 mm
05:25 AM 42.1°F5.6°C 30.8°F-0.7°C 64% 6.6 mph SSE10.6 kmh SSE 11.4 mph18.3 kmh 29.90 in1012.5 mb 0.00 in0.0 mm 0.00 in0.0 mm 0.00 in0.0 mm
05:30 AM 41.9°F5.5°C 30.6°F-0.8°C 64% 6.9 mph S11.1 kmh S 11.4 mph18.3 kmh 29.89 in1012.2 mb 0.00 in0.0 mm 0.00 in0.0 mm 0.00 in0.0 mm
05:35 AM 41.9°F5.5°C 30.6°F-0.8°C 64% 6.5 mph S10.5 kmh S 9.8 mph15.8 kmh 29.89 in1012.2 mb 0.00 in0.0 mm 0.00 in0.0 mm 0.00 in0.0 mm
05:40 AM 41.8°F5.4°C 30.7°F-0.7°C 64% 7.1 mph S11.4 kmh S 12.1 mph19.5 kmh 29.89 in1012.2 mb 0.00 in0.0 mm 0.00 in0.0 mm 0.00 in0.0 mm
05:45 AM 41.7°F5.4°C 30.8°F-0.7°C 65% 6.0 mph S9.7 kmh S 9.2 mph14.8 kmh 29.89 in1012.2 mb 0.00 in0.0 mm 0.00 in0.0 mm 0.00 in0.0 mm
05:50 AM 41.7°F5.4°C 30.8°F-0.7°C 65% 5.4 mph S8.7 kmh S 7.6 mph12.2 kmh 29.89 in1012.2 mb 0.00 in0.0 mm 0.00 in0.0 mm 0.00 in0.0 mm
05:55 AM 41.5°F5.3°C 30.8°F-0.7°C 65% 5.8 mph SSW9.3 kmh SSW 9.8 mph15.8 kmh 29.89 in1012.2 mb 0.00 in0.0 mm 0.00 in0.0 mm 0.00 in0.0 mm
06:00 AM 41.5°F5.3°C 31.0°F-0.6°C 66% 4.5 mph SSE7.2 kmh SSE 6.9 mph11.1 kmh 29.89 in1012.2 mb 0.00 in0.0 mm 0.00 in0.0 mm 0.00 in0.0 mm
06:05 AM 41.4°F5.2°C 30.9°F-0.6°C 66% 5.4 mph S8.7 kmh S 6.0 mph9.7 kmh 29.88 in1011.9 mb 0.00 in0.0 mm 0.00 in0.0 mm 0.00 in0.0 mm
06:10 AM 41.3°F5.2°C 31.1°F-0.5°C 67% 6.9 mph S11.1 kmh S 10.7 mph17.2 kmh 29.88 in1011.9 mb 0.00 in0.0 mm 0.00 in0.0 mm 0.00 in0.0 mm
06:15 AM 41.2°F5.1°C 31.3°F-0.4°C 68% 7.5 mph S12.1 kmh S 11.4 mph18.3 kmh 29.88 in1011.9 mb 0.00 in0.0 mm 0.00 in0.0 mm 0.00 in0.0 mm
06:20 AM 41.2°F5.1°C 31.6°F-0.2°C 68% 10.6 mph SSW17.1 kmh SSW 15.2 mph24.5 kmh 29.88 in1011.9 mb 0.00 in0.0 mm 0.00 in0.0 mm 0.00 in0.0 mm
06:25 AM 41.2°F5.1°C 31.8°F-0.1°C 69% 9.4 mph SSW15.1 kmh SSW 13.0 mph20.9 kmh 29.88 in1011.9 mb 0.00 in0.0 mm 0.00 in0.0 mm 0.00 in0.0 mm
06:30 AM 41.0°F5.0°C 32.0°F0.0°C 70% 8.3 mph SSW13.4 kmh SSW 13.0 mph20.9 kmh 29.88 in1011.9 mb 0.00 in0.0 mm 0.00 in0.0 mm 0.00 in0.0 mm
06:35 AM 40.8°F4.9°C 31.8°F-0.1°C 70% 7.6 mph S12.2 kmh S 13.6 mph21.9 kmh 29.87 in1011.5 mb 0.00 in0.0 mm 0.00 in0.0 mm 0.00 in0.0 mm
06:40 AM 40.5°F4.7°C 31.7°F-0.2°C 71% 9.7 mph S15.6 kmh S 13.6 mph21.9 kmh 29.87 in1011.5 mb 0.00 in0.0 mm 0.00 in0.0 mm 0.00 in0.0 mm
06:45 AM 40.3°F4.6°C 31.7°F-0.2°C 71% 12.5 mph S20.1 kmh S 21.3 mph34.3 kmh 29.87 in1011.5 mb 0.00 in0.0 mm 0.00 in0.0 mm 0.00 in0.0 mm
06:50 AM 40.3°F4.6°C 32.0°F0.0°C 72% 9.7 mph SSW15.6 kmh SSW 14.5 mph23.3 kmh 29.86 in1011.2 mb 0.00 in0.0 mm 0.00 in0.0 mm 0.00 in0.0 mm
06:55 AM 40.3°F4.6°C 32.2°F0.1°C 73% 9.7 mph SSW15.6 kmh SSW 14.5 mph23.3 kmh 29.86 in1011.2 mb 0.00 in0.0 mm 0.00 in0.0 mm 0.00 in0.0 mm
07:00 AM 40.3°F4.6°C 32.3°F0.2°C 73% 11.4 mph S18.3 kmh S 16.8 mph27.0 kmh 29.87 in1011.5 mb 0.00 in0.0 mm 0.00 in0.0 mm 0.00 in0.0 mm
07:05 AM 40.5°F4.7°C 32.5°F0.3°C 73% 9.2 mph SSW14.8 kmh SSW 15.2 mph24.5 kmh 29.87 in1011.5 mb 0.00 in0.0 mm 0.00 in0.0 mm 0.00 in0.0 mm
07:10 AM 40.5°F4.7°C 32.5°F0.3°C 73% 9.9 mph S15.9 kmh S 15.2 mph24.5 kmh 29.87 in1011.5 mb 0.00 in0.0 mm 0.00 in0.0 mm 0.00 in0.0 mm
07:15 AM 40.5°F4.7°C 32.5°F0.3°C 73% 11.8 mph SW19.0 kmh SW 16.8 mph27.0 kmh 29.87 in1011.5 mb 0.00 in0.0 mm 0.00 in0.0 mm 0.00 in0.0 mm
07:20 AM 40.5°F4.7°C 32.5°F0.3°C 73% 11.8 mph S19.0 kmh S 17.4 mph28.0 kmh 29.87 in1011.5 mb 0.00 in0.0 mm 0.00 in0.0 mm 0.00 in0.0 mm
07:25 AM 40.5°F4.7°C 32.5°F0.3°C 73% 11.5 mph S18.5 kmh S 18.3 mph29.5 kmh 29.87 in1011.5 mb 0.00 in0.0 mm 0.00 in0.0 mm 0.00 in0.0 mm
07:30 AM 40.5°F4.7°C 32.5°F0.3°C 73% 12.3 mph S19.8 kmh S 18.3 mph29.5 kmh 29.87 in1011.5 mb 0.00 in0.0 mm 0.00 in0.0 mm 0.00 in0.0 mm
07:35 AM 40.5°F4.7°C 32.5°F0.3°C 73% 10.7 mph SSW17.2 kmh SSW 17.4 mph28.0 kmh 29.86 in1011.2 mb 0.00 in0.0 mm 0.00 in0.0 mm 0.00 in0.0 mm
07:40 AM 40.5°F4.7°C 32.5°F0.3°C 73% 12.3 mph S19.8 kmh S 15.2 mph24.5 kmh 29.86 in1011.2 mb 0.00 in0.0 mm 0.00 in0.0 mm 0.00 in0.0 mm
07:45 AM 40.5°F4.7°C 32.5°F0.3°C 73% 9.7 mph SW15.6 kmh SW 15.9 mph25.6 kmh 29.86 in1011.2 mb 0.00 in0.0 mm 0.00 in0.0 mm 0.00 in0.0 mm
07:50 AM 40.5°F4.7°C 32.5°F0.3°C 73% 8.9 mph S14.3 kmh S 14.5 mph23.3 kmh 29.87 in1011.5 mb 0.00 in0.0 mm 0.00 in0.0 mm 0.00 in0.0 mm
07:55 AM 40.5°F4.7°C 32.5°F0.3°C 73% 9.6 mph S15.4 kmh S 15.9 mph25.6 kmh 29.87 in1011.5 mb 0.00 in0.0 mm 0.00 in0.0 mm 0.00 in0.0 mm
08:00 AM 40.5°F4.7°C 32.5°F0.3°C 73% 11.3 mph S18.2 kmh S 21.3 mph34.3 kmh 29.87 in1011.5 mb 0.00 in0.0 mm 0.00 in0.0 mm 0.00 in0.0 mm
08:05 AM 40.5°F4.7°C 32.5°F0.3°C 73% 6.9 mph S11.1 kmh S 9.2 mph14.8 kmh 29.86 in1011.2 mb 0.00 in0.0 mm 0.00 in0.0 mm 0.00 in0.0 mm
08:10 AM 40.3°F4.6°C 32.4°F0.2°C 73% 11.3 mph S18.2 kmh S 20.6 mph33.2 kmh 29.87 in1011.5 mb 0.00 in0.0 mm 0.00 in0.0 mm 0.00 in0.0 mm
08:15 AM 40.3°F4.6°C 32.3°F0.2°C 73% 12.1 mph SSW19.5 kmh SSW 16.8 mph27.0 kmh 29.87 in1011.5 mb 0.00 in0.0 mm 0.00 in0.0 mm 0.00 in0.0 mm
08:20 AM 40.1°F4.5°C 32.2°F0.1°C 73% 8.0 mph S12.9 kmh S 13.0 mph20.9 kmh 29.87 in1011.5 mb 0.00 in0.0 mm 0.00 in0.0 mm 0.00 in0.0 mm
08:25 AM 40.0°F4.4°C 32.3°F0.2°C 74% 7.3 mph SSW11.7 kmh SSW 13.0 mph20.9 kmh 29.87 in1011.5 mb 0.00 in0.0 mm 0.00 in0.0 mm 0.00 in0.0 mm
08:30 AM 39.9°F4.4°C 32.3°F0.2°C 74% 6.4 mph SSW10.3 kmh SSW 9.8 mph15.8 kmh 29.87 in1011.5 mb 0.00 in0.0 mm 0.00 in0.0 mm 0.00 in0.0 mm
08:35 AM 39.7°F4.3°C 32.3°F0.2°C 74% 5.0 mph S8.0 kmh S 9.8 mph15.8 kmh 29.87 in1011.5 mb 0.00 in0.0 mm 0.00 in0.0 mm 0.00 in0.0 mm
08:40 AM 39.8°F4.3°C 32.6°F0.3°C 75% 8.6 mph S13.8 kmh S 13.6 mph21.9 kmh 29.87 in1011.5 mb 0.00 in0.0 mm 0.00 in0.0 mm 0.00 in0.0 mm
08:45 AM 40.0°F4.4°C 32.7°F0.4°C 75% 6.6 mph S10.6 kmh S 9.8 mph15.8 kmh 29.87 in1011.5 mb 0.00 in0.0 mm 0.00 in0.0 mm 0.00 in0.0 mm
08:50 AM 40.1°F4.5°C 33.0°F0.6°C 76% 8.0 mph SSW12.9 kmh SSW 11.4 mph18.3 kmh 29.87 in1011.5 mb 0.00 in0.0 mm 0.00 in0.0 mm 0.00 in0.0 mm
08:55 AM 40.1°F4.5°C 33.2°F0.7°C 76% 6.0 mph S9.7 kmh S 11.4 mph18.3 kmh 29.87 in1011.5 mb 0.00 in0.0 mm 0.00 in0.0 mm 0.00 in0.0 mm
09:00 AM 40.1°F4.5°C 33.2°F0.7°C 76% 8.3 mph S13.4 kmh S 14.5 mph23.3 kmh 29.87 in1011.5 mb 0.00 in0.0 mm 0.00 in0.0 mm 0.00 in0.0 mm
09:05 AM 40.1°F4.5°C 33.2°F0.7°C 76% 8.3 mph S13.4 kmh S 13.0 mph20.9 kmh 29.87 in1011.5 mb 0.00 in0.0 mm 0.00 in0.0 mm 0.00 in0.0 mm
09:10 AM 40.1°F4.5°C 33.2°F0.7°C 76% 8.6 mph S13.8 kmh S 13.6 mph21.9 kmh 29.87 in1011.5 mb 0.00 in0.0 mm 0.00 in0.0 mm 0.00 in0.0 mm
09:15 AM 40.1°F4.5°C 33.2°F0.7°C 76% 8.9 mph SSE14.3 kmh SSE 12.1 mph19.5 kmh 29.87 in1011.5 mb 0.00 in0.0 mm 0.00 in0.0 mm 0.00 in0.0 mm
09:20 AM 40.1°F4.5°C 33.2°F0.7°C 76% 9.7 mph S15.6 kmh S 15.2 mph24.5 kmh 29.86 in1011.2 mb 0.00 in0.0 mm 0.00 in0.0 mm 0.00 in0.0 mm
09:25 AM 40.1°F4.5°C 33.2°F0.7°C 76% 11.3 mph S18.2 kmh S 17.4 mph28.0 kmh 29.86 in1011.2 mb 0.00 in0.0 mm 0.00 in0.0 mm 0.00 in0.0 mm
09:30 AM 40.1°F4.5°C 33.1°F0.6°C 76% 10.2 mph SE16.4 kmh SE 16.8 mph27.0 kmh 29.86 in1011.2 mb 0.00 in0.0 mm 0.00 in0.0 mm 0.00 in0.0 mm
09:35 AM 40.1°F4.5°C 32.8°F0.4°C 75% 7.0 mph S11.3 kmh S 12.1 mph19.5 kmh 29.87 in1011.5 mb 0.00 in0.0 mm 0.00 in0.0 mm 0.00 in0.0 mm
09:40 AM 40.1°F4.5°C 32.8°F0.4°C 75% 5.7 mph SSE9.2 kmh SSE 7.6 mph12.2 kmh 29.86 in1011.2 mb 0.00 in0.0 mm 0.00 in0.0 mm 0.00 in0.0 mm
09:45 AM 40.1°F4.5°C 32.8°F0.4°C 75% 6.9 mph SSE11.1 kmh SSE 13.0 mph20.9 kmh 29.86 in1011.2 mb 0.00 in0.0 mm 0.00 in0.0 mm 0.00 in0.0 mm
09:50 AM 40.0°F4.4°C 32.7°F0.4°C 75% 8.3 mph SSE13.4 kmh SSE 10.7 mph17.2 kmh 29.86 in1011.2 mb 0.00 in0.0 mm 0.00 in0.0 mm 0.00 in0.0 mm
09:55 AM 39.8°F4.3°C 32.5°F0.3°C 75% 5.8 mph SSE9.3 kmh SSE 10.7 mph17.2 kmh 29.86 in1011.2 mb 0.00 in0.0 mm 0.00 in0.0 mm 0.00 in0.0 mm
10:00 AM 39.7°F4.3°C 32.5°F0.3°C 75% 5.0 mph SSE8.0 kmh SSE 8.3 mph13.4 kmh 29.86 in1011.2 mb 0.00 in0.0 mm 0.00 in0.0 mm 0.00 in0.0 mm
10:05 AM 39.7°F4.3°C 32.5°F0.3°C 75% 13.6 mph SSW21.9 kmh SSW 15.9 mph25.6 kmh 29.86 in1011.2 mb 0.00 in0.0 mm 0.00 in0.0 mm 0.00 in0.0 mm
10:10 AM 39.7°F4.3°C 32.5°F0.3°C 75% 11.0 mph SSW17.7 kmh SSW 15.9 mph25.6 kmh 29.86 in1011.2 mb 0.00 in0.0 mm 0.00 in0.0 mm 0.00 in0.0 mm
10:15 AM 39.6°F4.2°C 32.4°F0.2°C 75% 7.8 mph SW12.6 kmh SW 11.4 mph18.3 kmh 29.86 in1011.2 mb 0.00 in0.0 mm 0.00 in0.0 mm 0.00 in0.0 mm
10:20 AM 39.6°F4.2°C 32.3°F0.2°C 75% 7.0 mph S11.3 kmh S 9.8 mph15.8 kmh 29.86 in1011.2 mb 0.00 in0.0 mm 0.00 in0.0 mm 0.00 in0.0 mm
10:25 AM 39.6°F4.2°C 32.3°F0.2°C 75% 8.0 mph S12.9 kmh S 13.0 mph20.9 kmh 29.85 in1010.8 mb 0.00 in0.0 mm 0.00 in0.0 mm 0.00 in0.0 mm
10:30 AM 39.5°F4.2°C 32.2°F0.1°C 75% 8.3 mph S13.4 kmh S 11.4 mph18.3 kmh 29.85 in1010.8 mb 0.00 in0.0 mm 0.00 in0.0 mm 0.00 in0.0 mm
10:35 AM 39.4°F4.1°C 32.1°F0.1°C 75% 7.2 mph S11.6 kmh S 13.0 mph20.9 kmh 29.85 in1010.8 mb 0.00 in0.0 mm 0.00 in0.0 mm 0.00 in0.0 mm
10:40 AM 39.3°F4.1°C 32.1°F0.1°C 75% 11.8 mph S19.0 kmh S 18.3 mph29.5 kmh 29.86 in1011.2 mb 0.00 in0.0 mm 0.00 in0.0 mm 0.00 in0.0 mm
10:45 AM 39.2°F4.0°C 32.0°F0.0°C 75% 12.1 mph S19.5 kmh S 18.3 mph29.5 kmh 29.85 in1010.8 mb 0.00 in0.0 mm 0.00 in0.0 mm 0.00 in0.0 mm
10:50 AM 39.0°F3.9°C 32.1°F0.1°C 76% 12.6 mph S20.3 kmh S 22.1 mph35.6 kmh 29.85 in1010.8 mb 0.00 in0.0 mm 0.00 in0.0 mm 0.00 in0.0 mm
10:55 AM 38.9°F3.8°C 32.0°F0.0°C 76% 14.7 mph S23.7 kmh S 22.8 mph36.7 kmh 29.85 in1010.8 mb 0.00 in0.0 mm 0.00 in0.0 mm 0.00 in0.0 mm
11:00 AM 38.8°F3.8°C 32.0°F0.0°C 76% 17.4 mph SSE28.0 kmh SSE 29.8 mph48.0 kmh 29.85 in1010.8 mb 0.00 in0.0 mm 0.00 in0.0 mm 0.00 in0.0 mm
11:05 AM 38.7°F3.7°C 32.1°F0.1°C 77% 16.9 mph S27.2 kmh S 22.1 mph35.6 kmh 29.85 in1010.8 mb 0.00 in0.0 mm 0.00 in0.0 mm 0.00 in0.0 mm
11:10 AM 38.7°F3.7°C 32.2°F0.1°C 77% 12.6 mph SSE20.3 kmh SSE 18.3 mph29.5 kmh 29.84 in1010.5 mb 0.00 in0.0 mm 0.00 in0.0 mm 0.00 in0.0 mm
11:15 AM 38.7°F3.7°C 32.4°F0.2°C 78% 13.4 mph S21.6 kmh S 23.5 mph37.8 kmh 29.85 in1010.8 mb 0.00 in0.0 mm 0.00 in0.0 mm 0.00 in0.0 mm
11:20 AM 38.7°F3.7°C 32.5°F0.3°C 78% 11.5 mph S18.5 kmh S 16.8 mph27.0 kmh 29.84 in1010.5 mb 0.00 in0.0 mm 0.00 in0.0 mm 0.00 in0.0 mm
11:25 AM 38.7°F3.7°C 32.7°F0.4°C 79% 11.3 mph S18.2 kmh S 18.3 mph29.5 kmh 29.84 in1010.5 mb 0.00 in0.0 mm 0.00 in0.0 mm 0.00 in0.0 mm
11:30 AM 38.7°F3.7°C 32.7°F0.4°C 79% 12.7 mph S20.4 kmh S 17.4 mph28.0 kmh 29.84 in1010.5 mb 0.00 in0.0 mm 0.00 in0.0 mm 0.00 in0.0 mm
11:35 AM 38.7°F3.7°C 32.7°F0.4°C 79% 10.4 mph S16.7 kmh S 18.3 mph29.5 kmh 29.84 in1010.5 mb 0.00 in0.0 mm 0.00 in0.0 mm 0.00 in0.0 mm
11:40 AM 38.7°F3.7°C 32.7°F0.4°C 79% 11.9 mph SSE19.2 kmh SSE 16.8 mph27.0 kmh 29.84 in1010.5 mb 0.00 in0.0 mm 0.00 in0.0 mm 0.00 in0.0 mm
11:45 AM 38.7°F3.7°C 33.0°F0.6°C 80% 9.2 mph SSE14.8 kmh SSE 19.0 mph30.6 kmh 29.84 in1010.5 mb 0.00 in0.0 mm 0.00 in0.0 mm 0.00 in0.0 mm
11:50 AM 38.7°F3.7°C 33.0°F0.6°C 80% 13.6 mph SE21.9 kmh SE 19.0 mph30.6 kmh 29.84 in1010.5 mb 0.00 in0.0 mm 0.00 in0.0 mm 0.00 in0.0 mm
11:55 AM 38.7°F3.7°C 33.1°F0.6°C 80% 12.4 mph SSE20.0 kmh SSE 16.8 mph27.0 kmh 29.84 in1010.5 mb 0.00 in0.0 mm 0.00 in0.0 mm 0.00 in0.0 mm
12:00 PM 38.8°F3.8°C 33.2°F0.7°C 80% 11.7 mph SSE18.8 kmh SSE 21.3 mph34.3 kmh 29.84 in1010.5 mb 0.00 in0.0 mm 0.00 in0.0 mm 0.00 in0.0 mm
12:05 PM 38.8°F3.8°C 33.2°F0.7°C 80% 6.0 mph S9.7 kmh S 8.3 mph13.4 kmh 29.83 in1010.2 mb 0.00 in0.0 mm 0.00 in0.0 mm 0.00 in0.0 mm
12:10 PM 38.9°F3.8°C 33.3°F0.7°C 80% 7.7 mph S12.4 kmh S 14.5 mph23.3 kmh 29.83 in1010.2 mb 0.00 in0.0 mm 0.00 in0.0 mm 0.00 in0.0 mm
12:15 PM 39.0°F3.9°C 33.4°F0.8°C 80% 11.8 mph S19.0 kmh S 17.4 mph28.0 kmh 29.82 in1009.8 mb 0.00 in0.0 mm 0.00 in0.0 mm 0.00 in0.0 mm
12:20 PM 39.1°F3.9°C 33.4°F0.8°C 80% 12.6 mph SSE20.3 kmh SSE 19.0 mph30.6 kmh 29.82 in1009.8 mb 0.00 in0.0 mm 0.00 in0.0 mm 0.00 in0.0 mm
12:25 PM 39.2°F4.0°C 33.6°F0.9°C 80% 11.6 mph S18.7 kmh S 18.3 mph29.5 kmh 29.82 in1009.8 mb 0.00 in0.0 mm 0.00 in0.0 mm 0.00 in0.0 mm
12:30 PM 39.4°F4.1°C 33.7°F0.9°C 80% 12.8 mph SSE20.6 kmh SSE 19.0 mph30.6 kmh 29.82 in1009.8 mb 0.00 in0.0 mm 0.00 in0.0 mm 0.00 in0.0 mm
12:35 PM 39.5°F4.2°C 33.8°F1.0°C 80% 13.5 mph S21.7 kmh S 19.0 mph30.6 kmh 29.82 in1009.8 mb 0.00 in0.0 mm 0.00 in0.0 mm 0.00 in0.0 mm
12:40 PM 39.6°F4.2°C 33.9°F1.1°C 80% 9.2 mph S14.8 kmh S 13.0 mph20.9 kmh 29.82 in1009.8 mb 0.00 in0.0 mm 0.00 in0.0 mm 0.00 in0.0 mm
12:45 PM 39.6°F4.2°C 33.9°F1.1°C 80% 11.4 mph S18.3 kmh S 15.2 mph24.5 kmh 29.82 in1009.8 mb 0.00 in0.0 mm 0.00 in0.0 mm 0.00 in0.0 mm
12:50 PM 39.6°F4.2°C 33.9°F1.1°C 80% 10.7 mph S17.2 kmh S 17.4 mph28.0 kmh 29.81 in1009.5 mb 0.00 in0.0 mm 0.00 in0.0 mm 0.00 in0.0 mm
12:55 PM 39.6°F4.2°C 33.9°F1.1°C 80% 10.4 mph S16.7 kmh S 14.5 mph23.3 kmh 29.81 in1009.5 mb 0.00 in0.0 mm 0.00 in0.0 mm 0.00 in0.0 mm
01:00 PM 39.7°F4.3°C 34.0°F1.1°C 80% 9.4 mph SSE15.1 kmh SSE 14.5 mph23.3 kmh 29.81 in1009.5 mb 0.00 in0.0 mm 0.00 in0.0 mm 0.00 in0.0 mm
01:05 PM 39.6°F4.2°C 34.3°F1.3°C 81% 11.6 mph S18.7 kmh S 19.7 mph31.7 kmh 29.80 in1009.1 mb 0.00 in0.0 mm 0.00 in0.0 mm 0.00 in0.0 mm
01:10 PM 39.6°F4.2°C 34.2°F1.2°C 81% 11.5 mph S18.5 kmh S 17.4 mph28.0 kmh 29.80 in1009.1 mb 0.00 in0.0 mm 0.00 in0.0 mm 0.00 in0.0 mm
01:15 PM 39.6°F4.2°C 34.2°F1.2°C 81% 7.5 mph SE12.1 kmh SE 13.0 mph20.9 kmh 29.80 in1009.1 mb 0.00 in0.0 mm 0.00 in0.0 mm 0.00 in0.0 mm
01:20 PM 39.6°F4.2°C 34.2°F1.2°C 81% 9.4 mph S15.1 kmh S 13.0 mph20.9 kmh 29.79 in1008.8 mb 0.00 in0.0 mm 0.00 in0.0 mm 0.00 in0.0 mm
01:25 PM 39.7°F4.3°C 34.4°F1.3°C 81% 10.6 mph SSE17.1 kmh SSE 16.8 mph27.0 kmh 29.79 in1008.8 mb 0.00 in0.0 mm 0.00 in0.0 mm 0.00 in0.0 mm
01:30 PM 39.7°F4.3°C 34.4°F1.3°C 81% 9.5 mph S15.3 kmh S 15.9 mph25.6 kmh 29.79 in1008.8 mb 0.00 in0.0 mm 0.00 in0.0 mm 0.00 in0.0 mm
01:35 PM 39.8°F4.3°C 34.5°F1.4°C 81% 7.2 mph S11.6 kmh S 12.1 mph19.5 kmh 29.79 in1008.8 mb 0.00 in0.0 mm 0.00 in0.0 mm 0.00 in0.0 mm
01:40 PM 40.0°F4.4°C 34.7°F1.5°C 81% 9.3 mph S15.0 kmh S 17.4 mph28.0 kmh 29.79 in1008.8 mb 0.00 in0.0 mm 0.00 in0.0 mm 0.00 in0.0 mm
01:45 PM 40.1°F4.5°C 34.7°F1.5°C 81% 11.7 mph S18.8 kmh S 20.6 mph33.2 kmh 29.79 in1008.8 mb 0.00 in0.0 mm 0.00 in0.0 mm 0.00 in0.0 mm
01:50 PM 40.1°F4.5°C 34.7°F1.5°C 81% 12.7 mph S20.4 kmh S 16.8 mph27.0 kmh 29.79 in1008.8 mb 0.00 in0.0 mm 0.00 in0.0 mm 0.00 in0.0 mm
01:55 PM 40.1°F4.5°C 34.7°F1.5°C 81% 13.8 mph SSE22.2 kmh SSE 18.3 mph29.5 kmh 29.79 in1008.8 mb 0.00 in0.0 mm 0.00 in0.0 mm 0.00 in0.0 mm
02:00 PM 40.1°F4.5°C 34.7°F1.5°C 81% 14.3 mph SSE23.0 kmh SSE 25.1 mph40.4 kmh 29.78 in1008.5 mb 0.00 in0.0 mm 0.00 in0.0 mm 0.00 in0.0 mm
02:05 PM 40.1°F4.5°C 34.7°F1.5°C 81% 19.7 mph SSE31.7 kmh SSE 25.1 mph40.4 kmh 29.78 in1008.5 mb 0.00 in0.0 mm 0.00 in0.0 mm 0.00 in0.0 mm
02:10 PM 40.1°F4.5°C 34.7°F1.5°C 81% 13.3 mph SE21.4 kmh SE 25.1 mph40.4 kmh 29.78 in1008.5 mb 0.00 in0.0 mm 0.00 in0.0 mm 0.00 in0.0 mm
02:15 PM 40.1°F4.5°C 34.7°F1.5°C 81% 10.6 mph SSE17.1 kmh SSE 15.9 mph25.6 kmh 29.79 in1008.8 mb 0.00 in0.0 mm 0.00 in0.0 mm 0.00 in0.0 mm
02:20 PM 40.1°F4.5°C 34.7°F1.5°C 81% 11.2 mph SSE18.0 kmh SSE 19.0 mph30.6 kmh 29.79 in1008.8 mb 0.00 in0.0 mm 0.00 in0.0 mm 0.00 in0.0 mm
02:25 PM 40.1°F4.5°C 34.7°F1.5°C 81% 11.2 mph S18.0 kmh S 18.3 mph29.5 kmh 29.79 in1008.8 mb 0.00 in0.0 mm 0.00 in0.0 mm 0.00 in0.0 mm
02:30 PM 40.1°F4.5°C 34.7°F1.5°C 81% 12.0 mph SSE19.3 kmh SSE 18.3 mph29.5 kmh 29.79 in1008.8 mb 0.00 in0.0 mm 0.00 in0.0 mm 0.00 in0.0 mm
02:35 PM 40.1°F4.5°C 34.7°F1.5°C 81% 11.3 mph SSE18.2 kmh SSE 17.4 mph28.0 kmh 29.78 in1008.5 mb 0.00 in0.0 mm 0.00 in0.0 mm 0.00 in0.0 mm
02:40 PM 40.1°F4.5°C 34.7°F1.5°C 81% 11.5 mph SE18.5 kmh SE 17.4 mph28.0 kmh 29.79 in1008.8 mb 0.00 in0.0 mm 0.00 in0.0 mm 0.00 in0.0 mm
02:45 PM 40.1°F4.5°C 34.7°F1.5°C 81% 10.8 mph SSW17.4 kmh SSW 16.8 mph27.0 kmh 29.79 in1008.8 mb 0.00 in0.0 mm 0.00 in0.0 mm 0.00 in0.0 mm
02:50 PM 40.1°F4.5°C 34.7°F1.5°C 81% 10.1 mph SSE16.3 kmh SSE 15.9 mph25.6 kmh 29.79 in1008.8 mb 0.00 in0.0 mm 0.00 in0.0 mm 0.00 in0.0 mm
02:55 PM 40.3°F4.6°C 34.9°F1.6°C 81% 14.8 mph S23.8 kmh S 20.6 mph33.2 kmh 29.79 in1008.8 mb 0.00 in0.0 mm 0.00 in0.0 mm 0.00 in0.0 mm
03:00 PM 40.3°F4.6°C 34.9°F1.6°C 81% 13.1 mph SSE21.1 kmh SSE 19.0 mph30.6 kmh 29.79 in1008.8 mb 0.00 in0.0 mm 0.00 in0.0 mm 0.00 in0.0 mm
03:05 PM 40.3°F4.6°C 34.9°F1.6°C 81% 15.2 mph SSE24.5 kmh SSE 23.5 mph37.8 kmh 29.79 in1008.8 mb 0.00 in0.0 mm 0.00 in0.0 mm 0.00 in0.0 mm
03:10 PM 40.3°F4.6°C 34.9°F1.6°C 81% 15.4 mph S24.8 kmh S 22.8 mph36.7 kmh 29.79 in1008.8 mb 0.00 in0.0 mm 0.00 in0.0 mm 0.00 in0.0 mm
03:15 PM 40.3°F4.6°C 34.9°F1.6°C 81% 10.7 mph S17.2 kmh S 16.8 mph27.0 kmh 29.79 in1008.8 mb 0.00 in0.0 mm 0.00 in0.0 mm 0.00 in0.0 mm
03:20 PM 40.3°F4.6°C 34.9°F1.6°C 81% 9.5 mph S15.3 kmh S 16.8 mph27.0 kmh 29.79 in1008.8 mb 0.00 in0.0 mm 0.00 in0.0 mm 0.00 in0.0 mm
03:25 PM 40.3°F4.6°C 34.9°F1.6°C 81% 11.2 mph SSE18.0 kmh SSE 16.8 mph27.0 kmh 29.79 in1008.8 mb 0.00 in0.0 mm 0.00 in0.0 mm 0.00 in0.0 mm
03:30 PM 40.3°F4.6°C 34.9°F1.6°C 81% 9.2 mph S14.8 kmh S 13.0 mph20.9 kmh 29.78 in1008.5 mb 0.00 in0.0 mm 0.00 in0.0 mm 0.00 in0.0 mm
03:35 PM 40.3°F4.6°C 34.9°F1.6°C 81% 10.3 mph SSE16.6 kmh SSE 15.2 mph24.5 kmh 29.78 in1008.5 mb 0.00 in0.0 mm 0.00 in0.0 mm 0.00 in0.0 mm
03:40 PM 40.3°F4.6°C 35.0°F1.7°C 81% 11.3 mph S18.2 kmh S 18.3 mph29.5 kmh 29.79 in1008.8 mb 0.00 in0.0 mm 0.00 in0.0 mm 0.00 in0.0 mm
03:45 PM 40.5°F4.7°C 35.1°F1.7°C 81% 12.3 mph SSE19.8 kmh SSE 17.4 mph28.0 kmh 29.78 in1008.5 mb 0.00 in0.0 mm 0.00 in0.0 mm 0.00 in0.0 mm
03:50 PM 40.5°F4.7°C 35.1°F1.7°C 81% 9.9 mph SSE15.9 kmh SSE 13.6 mph21.9 kmh 29.78 in1008.5 mb 0.00 in0.0 mm 0.00 in0.0 mm 0.00 in0.0 mm
03:55 PM 40.5°F4.7°C 35.1°F1.7°C 81% 7.6 mph S12.2 kmh S 13.6 mph21.9 kmh 29.78 in1008.5 mb 0.00 in0.0 mm 0.00 in0.0 mm 0.00 in0.0 mm
04:00 PM 40.5°F4.7°C 35.1°F1.7°C 81% 8.5 mph S13.7 kmh S 12.1 mph19.5 kmh 29.78 in1008.5 mb 0.00 in0.0 mm 0.00 in0.0 mm 0.00 in0.0 mm
04:05 PM 40.5°F4.7°C 35.1°F1.7°C 81% 6.0 mph SW9.7 kmh SW 6.9 mph11.1 kmh 29.78 in1008.5 mb 0.00 in0.0 mm 0.00 in0.0 mm 0.00 in0.0 mm
04:10 PM 40.5°F4.7°C 35.1°F1.7°C 81% 8.3 mph S13.4 kmh S 13.0 mph20.9 kmh 29.78 in1008.5 mb 0.00 in0.0 mm 0.00 in0.0 mm 0.00 in0.0 mm
04:15 PM 40.5°F4.7°C 35.1°F1.7°C 81% 8.0 mph SSE12.9 kmh SSE 12.1 mph19.5 kmh 29.78 in1008.5 mb 0.00 in0.0 mm 0.00 in0.0 mm 0.00 in0.0 mm
04:20 PM 40.5°F4.7°C 35.2°F1.8°C 81% 7.6 mph S12.2 kmh S 11.4 mph18.3 kmh 29.78 in1008.5 mb 0.00 in0.0 mm 0.00 in0.0 mm 0.00 in0.0 mm
04:25 PM 40.5°F4.7°C 35.4°F1.9°C 82% 12.8 mph S20.6 kmh S 16.8 mph27.0 kmh 29.78 in1008.5 mb 0.00 in0.0 mm 0.00 in0.0 mm 0.00 in0.0 mm
04:30 PM 40.5°F4.7°C 35.4°F1.9°C 82% 9.8 mph SSE15.8 kmh SSE 19.0 mph30.6 kmh 29.78 in1008.5 mb 0.00 in0.0 mm 0.00 in0.0 mm 0.00 in0.0 mm
04:35 PM 40.5°F4.7°C 35.4°F1.9°C 82% 9.4 mph S15.1 kmh S 13.6 mph21.9 kmh 29.78 in1008.5 mb 0.00 in0.0 mm 0.00 in0.0 mm 0.00 in0.0 mm
04:40 PM 40.5°F4.7°C 35.4°F1.9°C 82% 11.5 mph S18.5 kmh S 15.2 mph24.5 kmh 29.78 in1008.5 mb 0.00 in0.0 mm 0.00 in0.0 mm 0.00 in0.0 mm
04:45 PM 40.5°F4.7°C 35.4°F1.9°C 82% 12.1 mph SSE19.5 kmh SSE 18.3 mph29.5 kmh 29.78 in1008.5 mb 0.00 in0.0 mm 0.00 in0.0 mm 0.00 in0.0 mm
04:50 PM 40.5°F4.7°C 35.4°F1.9°C 82% 8.1 mph SE13.0 kmh SE 15.9 mph25.6 kmh 29.78 in1008.5 mb 0.00 in0.0 mm 0.00 in0.0 mm 0.00 in0.0 mm
04:55 PM 40.5°F4.7°C 35.4°F1.9°C 82% 10.0 mph S16.1 kmh S 15.9 mph25.6 kmh 29.79 in1008.8 mb 0.00 in0.0 mm 0.00 in0.0 mm 0.00 in0.0 mm
05:00 PM 40.6°F4.8°C 35.5°F1.9°C 82% 9.1 mph SSE14.6 kmh SSE 13.0 mph20.9 kmh 29.78 in1008.5 mb 0.00 in0.0 mm 0.00 in0.0 mm 0.00 in0.0 mm
05:05 PM 40.6°F4.8°C 35.6°F2.0°C 82% 10.6 mph SE17.1 kmh SE 15.2 mph24.5 kmh 29.78 in1008.5 mb 0.00 in0.0 mm 0.00 in0.0 mm 0.00 in0.0 mm
05:10 PM 40.7°F4.8°C 35.6°F2.0°C 82% 8.9 mph S14.3 kmh S 12.1 mph19.5 kmh 29.78 in1008.5 mb 0.00 in0.0 mm 0.00 in0.0 mm 0.00 in0.0 mm
05:15 PM 40.8°F4.9°C 35.8°F2.1°C 82% 9.5 mph S15.3 kmh S 13.6 mph21.9 kmh 29.78 in1008.5 mb 0.00 in0.0 mm 0.00 in0.0 mm 0.00 in0.0 mm
05:20 PM 40.8°F4.9°C 35.8°F2.1°C 82% 8.9 mph SSE14.3 kmh SSE 13.0 mph20.9 kmh 29.78 in1008.5 mb 0.00 in0.0 mm 0.00 in0.0 mm 0.00 in0.0 mm
05:25 PM 40.9°F4.9°C 35.9°F2.2°C 82% 10.5 mph SSW16.9 kmh SSW 15.2 mph24.5 kmh 29.78 in1008.5 mb 0.00 in0.0 mm 0.00 in0.0 mm 0.00 in0.0 mm
05:30 PM 41.0°F5.0°C 35.9°F2.2°C 82% 12.0 mph S19.3 kmh S 19.7 mph31.7 kmh 29.78 in1008.5 mb 0.00 in0.0 mm 0.00 in0.0 mm 0.00 in0.0 mm
05:35 PM 41.0°F5.0°C 35.9°F2.2°C 82% 12.8 mph S20.6 kmh S 22.1 mph35.6 kmh 29.78 in1008.5 mb 0.00 in0.0 mm 0.00 in0.0 mm 0.00 in0.0 mm
05:40 PM 41.1°F5.1°C 36.0°F2.2°C 82% 11.0 mph SE17.7 kmh SE 18.3 mph29.5 kmh 29.78 in1008.5 mb 0.00 in0.0 mm 0.00 in0.0 mm 0.00 in0.0 mm
05:45 PM 41.2°F5.1°C 36.1°F2.3°C 82% 9.9 mph S15.9 kmh S 13.6 mph21.9 kmh 29.78 in1008.5 mb 0.00 in0.0 mm 0.00 in0.0 mm 0.00 in0.0 mm
05:50 PM 41.2°F5.1°C 36.1°F2.3°C 82% 10.0 mph S16.1 kmh S 14.5 mph23.3 kmh 29.78 in1008.5 mb 0.00 in0.0 mm 0.00 in0.0 mm 0.00 in0.0 mm
05:55 PM 41.2°F5.1°C 36.1°F2.3°C 82% 12.8 mph S20.6 kmh S 17.4 mph28.0 kmh 29.78 in1008.5 mb 0.00 in0.0 mm 0.00 in0.0 mm 0.00 in0.0 mm
06:00 PM 41.2°F5.1°C 36.1°F2.3°C 82% 8.1 mph S13.0 kmh S 14.5 mph23.3 kmh 29.78 in1008.5 mb 0.00 in0.0 mm 0.00 in0.0 mm 0.00 in0.0 mm
06:05 PM 41.2°F5.1°C 36.1°F2.3°C 82% 6.9 mph SE11.1 kmh SE 8.3 mph13.4 kmh 29.78 in1008.5 mb 0.00 in0.0 mm 0.00 in0.0 mm 0.00 in0.0 mm
06:10 PM 41.2°F5.1°C 36.1°F2.3°C 82% 6.4 mph SSE10.3 kmh SSE 9.2 mph14.8 kmh 29.78 in1008.5 mb 0.00 in0.0 mm 0.00 in0.0 mm 0.00 in0.0 mm
06:15 PM 41.2°F5.1°C 36.1°F2.3°C 82% 6.2 mph SSE10.0 kmh SSE 12.1 mph19.5 kmh 29.78 in1008.5 mb 0.00 in0.0 mm 0.00 in0.0 mm 0.00 in0.0 mm
06:20 PM 41.4°F5.2°C 36.3°F2.4°C 82% 5.4 mph SSE8.7 kmh SSE 9.2 mph14.8 kmh 29.79 in1008.8 mb 0.00 in0.0 mm 0.00 in0.0 mm 0.00 in0.0 mm
06:25 PM 41.4°F5.2°C 36.3°F2.4°C 82% 10.2 mph SSW16.4 kmh SSW 13.6 mph21.9 kmh 29.78 in1008.5 mb 0.00 in0.0 mm 0.00 in0.0 mm 0.00 in0.0 mm
06:30 PM 41.4°F5.2°C 36.5°F2.5°C 83% 8.9 mph S14.3 kmh S 13.6 mph21.9 kmh 29.78 in1008.5 mb 0.00 in0.0 mm 0.00 in0.0 mm 0.00 in0.0 mm
06:35 PM 41.5°F5.3°C 36.7°F2.6°C 83% 8.8 mph S14.2 kmh S 14.5 mph23.3 kmh 29.79 in1008.8 mb 0.00 in0.0 mm 0.00 in0.0 mm 0.00 in0.0 mm
06:40 PM 41.5°F5.3°C 36.7°F2.6°C 83% 10.5 mph S16.9 kmh S 15.9 mph25.6 kmh 29.79 in1008.8 mb 0.00 in0.0 mm 0.00 in0.0 mm 0.00 in0.0 mm
06:45 PM 41.5°F5.3°C 36.8°F2.7°C 83% 8.7 mph S14.0 kmh S 17.4 mph28.0 kmh 29.79 in1008.8 mb 0.00 in0.0 mm 0.00 in0.0 mm 0.00 in0.0 mm
06:50 PM 41.5°F5.3°C 36.8°F2.7°C 83% 8.1 mph SSE13.0 kmh SSE 18.3 mph29.5 kmh 29.79 in1008.8 mb 0.00 in0.0 mm 0.00 in0.0 mm 0.00 in0.0 mm
06:55 PM 41.5°F5.3°C 36.7°F2.6°C 83% 11.9 mph SSE19.2 kmh SSE 16.8 mph27.0 kmh 29.78 in1008.5 mb 0.00 in0.0 mm 0.00 in0.0 mm 0.00 in0.0 mm
07:00 PM 41.4°F5.2°C 36.6°F2.6°C 83% 11.4 mph S18.3 kmh S 19.0 mph30.6 kmh 29.78 in1008.5 mb 0.00 in0.0 mm 0.00 in0.0 mm 0.00 in0.0 mm
07:05 PM 41.4°F5.2°C 36.6°F2.6°C 83% 9.5 mph S15.3 kmh S 14.5 mph23.3 kmh 29.79 in1008.8 mb 0.00 in0.0 mm 0.00 in0.0 mm 0.00 in0.0 mm
07:10 PM 41.4°F5.2°C 36.6°F2.6°C 83% 9.1 mph SSE14.6 kmh SSE 17.4 mph28.0 kmh 29.79 in1008.8 mb 0.00 in0.0 mm 0.00 in0.0 mm 0.00 in0.0 mm
07:15 PM 41.4°F5.2°C 36.6°F2.6°C 83% 11.6 mph S18.7 kmh S 15.2 mph24.5 kmh 29.79 in1008.8 mb 0.00 in0.0 mm 0.00 in0.0 mm 0.00 in0.0 mm
07:20 PM 41.4°F5.2°C 36.6°F2.6°C 83% 11.2 mph SSE18.0 kmh SSE 18.3 mph29.5 kmh 29.79 in1008.8 mb 0.00 in0.0 mm 0.00 in0.0 mm 0.00 in0.0 mm
07:25 PM 41.4°F5.2°C 36.6°F2.6°C 83% 11.6 mph SSE18.7 kmh SSE 17.4 mph28.0 kmh 29.79 in1008.8 mb 0.00 in0.0 mm 0.00 in0.0 mm 0.00 in0.0 mm
07:30 PM 41.4°F5.2°C 36.9°F2.7°C 84% 12.4 mph S20.0 kmh S 19.7 mph31.7 kmh 29.78 in1008.5 mb 0.00 in0.0 mm 0.00 in0.0 mm 0.00 in0.0 mm
07:35 PM 41.4°F5.2°C 36.9°F2.7°C 84% 11.4 mph SSE18.3 kmh SSE 17.4 mph28.0 kmh 29.78 in1008.5 mb 0.00 in0.0 mm 0.00 in0.0 mm 0.00 in0.0 mm
07:40 PM 41.4°F5.2°C 36.9°F2.7°C 84% 11.1 mph SSE17.9 kmh SSE 18.3 mph29.5 kmh 29.78 in1008.5 mb 0.00 in0.0 mm 0.00 in0.0 mm 0.00 in0.0 mm
07:45 PM 41.4°F5.2°C 36.9°F2.7°C 84% 11.0 mph S17.7 kmh S 14.5 mph23.3 kmh 29.78 in1008.5 mb 0.00 in0.0 mm 0.00 in0.0 mm 0.00 in0.0 mm
07:50 PM 41.5°F5.3°C 37.1°F2.8°C 84% 11.3 mph S18.2 kmh S 19.7 mph31.7 kmh 29.78 in1008.5 mb 0.00 in0.0 mm 0.00 in0.0 mm 0.00 in0.0 mm
07:55 PM 41.5°F5.3°C 37.1°F2.8°C 84% 9.0 mph SSE14.5 kmh SSE 15.9 mph25.6 kmh 29.78 in1008.5 mb 0.00 in0.0 mm 0.00 in0.0 mm 0.00 in0.0 mm
08:00 PM 41.7°F5.4°C 37.2°F2.9°C 84% 9.3 mph SSE15.0 kmh SSE 15.9 mph25.6 kmh 29.77 in1008.1 mb 0.00 in0.0 mm 0.00 in0.0 mm 0.00 in0.0 mm
08:05 PM 41.7°F5.4°C 37.2°F2.9°C 84% 9.2 mph SE14.8 kmh SE 10.7 mph17.2 kmh 29.77 in1008.1 mb 0.00 in0.0 mm 0.00 in0.0 mm 0.00 in0.0 mm
08:10 PM 41.8°F5.4°C 37.4°F3.0°C 84% 9.3 mph S15.0 kmh S 13.0 mph20.9 kmh 29.78 in1008.5 mb 0.00 in0.0 mm 0.00 in0.0 mm 0.00 in0.0 mm
08:15 PM 41.9°F5.5°C 37.4°F3.0°C 84% 6.2 mph SSE10.0 kmh SSE 11.4 mph18.3 kmh 29.77 in1008.1 mb 0.00 in0.0 mm 0.00 in0.0 mm 0.00 in0.0 mm
08:20 PM 42.0°F5.6°C 37.5°F3.1°C 84% 7.0 mph SE11.3 kmh SE 11.4 mph18.3 kmh 29.77 in1008.1 mb 0.00 in0.0 mm 0.00 in0.0 mm 0.00 in0.0 mm
08:25 PM 42.1°F5.6°C 37.6°F3.1°C 84% 6.7 mph S10.8 kmh S 12.1 mph19.5 kmh 29.77 in1008.1 mb 0.00 in0.0 mm 0.00 in0.0 mm 0.00 in0.0 mm
08:30 PM 42.2°F5.7°C 37.6°F3.1°C 83% 8.7 mph SSE14.0 kmh SSE 13.6 mph21.9 kmh 29.77 in1008.1 mb 0.00 in0.0 mm 0.00 in0.0 mm 0.00 in0.0 mm
08:35 PM 42.3°F5.7°C 37.5°F3.1°C 83% 10.0 mph SSE16.1 kmh SSE 17.4 mph28.0 kmh 29.77 in1008.1 mb 0.00 in0.0 mm 0.00 in0.0 mm 0.00 in0.0 mm
08:40 PM 42.4°F5.8°C 37.6°F3.1°C 83% 9.8 mph SSW15.8 kmh SSW 14.5 mph23.3 kmh 29.77 in1008.1 mb 0.00 in0.0 mm 0.00 in0.0 mm 0.00 in0.0 mm
08:45 PM 42.4°F5.8°C 37.6°F3.1°C 83% 10.6 mph SE17.1 kmh SE 15.2 mph24.5 kmh 29.77 in1008.1 mb 0.00 in0.0 mm 0.00 in0.0 mm 0.00 in0.0 mm
08:50 PM 42.4°F5.8°C 37.6°F3.1°C 83% 7.8 mph S12.6 kmh S 11.4 mph18.3 kmh 29.77 in1008.1 mb 0.00 in0.0 mm 0.00 in0.0 mm 0.00 in0.0 mm
08:55 PM 42.4°F5.8°C 37.6°F3.1°C 83% 7.6 mph SE12.2 kmh SE 11.4 mph18.3 kmh 29.77 in1008.1 mb 0.00 in0.0 mm 0.00 in0.0 mm 0.00 in0.0 mm
09:00 PM 42.4°F5.8°C 37.4°F3.0°C 82% 5.2 mph S8.4 kmh S 10.7 mph17.2 kmh 29.77 in1008.1 mb 0.00 in0.0 mm 0.00 in0.0 mm 0.00 in0.0 mm
09:05 PM 42.4°F5.8°C 37.3°F2.9°C 82% 7.2 mph SE11.6 kmh SE 10.7 mph17.2 kmh 29.77 in1008.1 mb 0.00 in0.0 mm 0.00 in0.0 mm 0.00 in0.0 mm
09:10 PM 42.4°F5.8°C 37.3°F2.9°C 82% 8.0 mph SE12.9 kmh SE 13.0 mph20.9 kmh 29.77 in1008.1 mb 0.00 in0.0 mm 0.00 in0.0 mm 0.00 in0.0 mm
09:15 PM 42.4°F5.8°C 37.3°F2.9°C 82% 7.6 mph S12.2 kmh S 12.1 mph19.5 kmh 29.76 in1007.8 mb 0.00 in0.0 mm 0.00 in0.0 mm 0.00 in0.0 mm
09:20 PM 42.4°F5.8°C 37.3°F2.9°C 82% 6.0 mph SE9.7 kmh SE 10.7 mph17.2 kmh 29.76 in1007.8 mb 0.00 in0.0 mm 0.00 in0.0 mm 0.00 in0.0 mm
09:25 PM 42.4°F5.8°C 37.3°F2.9°C 82% 7.3 mph SE11.7 kmh SE 10.7 mph17.2 kmh 29.76 in1007.8 mb 0.00 in0.0 mm 0.00 in0.0 mm 0.00 in0.0 mm
09:30 PM 42.5°F5.8°C 37.4°F3.0°C 82% 8.7 mph SSE14.0 kmh SSE 13.0 mph20.9 kmh 29.76 in1007.8 mb 0.00 in0.0 mm 0.00 in0.0 mm 0.00 in0.0 mm
09:35 PM 42.6°F5.9°C 37.5°F3.1°C 82% 8.9 mph S14.3 kmh S 14.5 mph23.3 kmh 29.76 in1007.8 mb 0.00 in0.0 mm 0.00 in0.0 mm 0.00 in0.0 mm
09:40 PM 42.6°F5.9°C 37.5°F3.1°C 82% 8.4 mph S13.5 kmh S 11.4 mph18.3 kmh 29.75 in1007.5 mb 0.00 in0.0 mm 0.00 in0.0 mm 0.00 in0.0 mm
09:45 PM 42.6°F5.9°C 37.5°F3.1°C 82% 9.1 mph SSE14.6 kmh SSE 13.6 mph21.9 kmh 29.75 in1007.5 mb 0.00 in0.0 mm 0.00 in0.0 mm 0.00 in0.0 mm
09:50 PM 42.6°F5.9°C 37.5°F3.1°C 82% 5.9 mph SE9.5 kmh SE 9.8 mph15.8 kmh 29.75 in1007.5 mb 0.00 in0.0 mm 0.00 in0.0 mm 0.00 in0.0 mm
09:55 PM 42.6°F5.9°C 37.7°F3.2°C 82% 11.2 mph S18.0 kmh S 17.4 mph28.0 kmh 29.76 in1007.8 mb 0.00 in0.0 mm 0.00 in0.0 mm 0.00 in0.0 mm
10:00 PM 42.8°F6.0°C 38.0°F3.3°C 83% 7.2 mph S11.6 kmh S 10.7 mph17.2 kmh 29.75 in1007.5 mb 0.00 in0.0 mm 0.00 in0.0 mm 0.00 in0.0 mm
10:05 PM 42.8°F6.0°C 38.0°F3.3°C 83% 17.4 mph SSE28.0 kmh SSE 22.1 mph35.6 kmh 29.75 in1007.5 mb 0.00 in0.0 mm 0.00 in0.0 mm 0.00 in0.0 mm
10:10 PM 42.9°F6.1°C 38.1°F3.4°C 83% 10.2 mph S16.4 kmh S 22.1 mph35.6 kmh 29.75 in1007.5 mb 0.00 in0.0 mm 0.00 in0.0 mm 0.00 in0.0 mm
10:15 PM 43.0°F6.1°C 38.2°F3.4°C 83% 9.0 mph SE14.5 kmh SE 12.1 mph19.5 kmh 29.75 in1007.5 mb 0.00 in0.0 mm 0.00 in0.0 mm 0.00 in0.0 mm
10:20 PM 43.0°F6.1°C 38.2°F3.4°C 83% 9.2 mph S14.8 kmh S 14.5 mph23.3 kmh 29.75 in1007.5 mb 0.00 in0.0 mm 0.00 in0.0 mm 0.00 in0.0 mm
10:25 PM 43.2°F6.2°C 38.4°F3.6°C 83% 8.2 mph S13.2 kmh S 11.4 mph18.3 kmh 29.75 in1007.5 mb 0.00 in0.0 mm 0.00 in0.0 mm 0.00 in0.0 mm
10:30 PM 43.2°F6.2°C 38.4°F3.6°C 83% 9.2 mph S14.8 kmh S 13.0 mph20.9 kmh 29.75 in1007.5 mb 0.00 in0.0 mm 0.00 in0.0 mm 0.00 in0.0 mm
10:35 PM 43.2°F6.2°C 38.4°F3.6°C 83% 10.3 mph S16.6 kmh S 15.9 mph25.6 kmh 29.75 in1007.5 mb 0.00 in0.0 mm 0.00 in0.0 mm 0.00 in0.0 mm
10:40 PM 43.2°F6.2°C 38.4°F3.6°C 83% 12.4 mph S20.0 kmh S 20.6 mph33.2 kmh 29.75 in1007.5 mb 0.00 in0.0 mm 0.00 in0.0 mm 0.00 in0.0 mm
10:45 PM 43.2°F6.2°C 38.4°F3.6°C 83% 9.9 mph S15.9 kmh S 14.5 mph23.3 kmh 29.75 in1007.5 mb 0.00 in0.0 mm 0.00 in0.0 mm 0.00 in0.0 mm
10:50 PM 43.3°F6.3°C 38.5°F3.6°C 83% 12.1 mph S19.5 kmh S 19.0 mph30.6 kmh 29.75 in1007.5 mb 0.00 in0.0 mm 0.00 in0.0 mm 0.00 in0.0 mm
10:55 PM 43.3°F6.3°C 38.5°F3.6°C 83% 13.5 mph SSE21.7 kmh SSE 19.0 mph30.6 kmh 29.74 in1007.1 mb 0.00 in0.0 mm 0.00 in0.0 mm 0.00 in0.0 mm
11:00 PM 43.3°F6.3°C 38.5°F3.6°C 83% 12.6 mph S20.3 kmh S 19.0 mph30.6 kmh 29.74 in1007.1 mb 0.00 in0.0 mm 0.00 in0.0 mm 0.00 in0.0 mm
11:05 PM 43.3°F6.3°C 38.5°F3.6°C 83% 8.8 mph S14.2 kmh S 14.5 mph23.3 kmh 29.74 in1007.1 mb 0.00 in0.0 mm 0.00 in0.0 mm 0.00 in0.0 mm
11:10 PM 43.3°F6.3°C 38.7°F3.7°C 84% 9.2 mph SSE14.8 kmh SSE 14.5 mph23.3 kmh 29.74 in1007.1 mb 0.00 in0.0 mm 0.00 in0.0 mm 0.00 in0.0 mm
11:15 PM 43.3°F6.3°C 38.8°F3.8°C 84% 9.2 mph SE14.8 kmh SE 16.8 mph27.0 kmh 29.73 in1006.8 mb 0.00 in0.0 mm 0.00 in0.0 mm 0.00 in0.0 mm
11:20 PM 43.3°F6.3°C 38.8°F3.8°C 84% 11.8 mph SSE19.0 kmh SSE 16.8 mph27.0 kmh 29.73 in1006.8 mb 0.00 in0.0 mm 0.00 in0.0 mm 0.00 in0.0 mm
11:25 PM 43.4°F6.3°C 38.9°F3.8°C 84% 9.5 mph S15.3 kmh S 13.6 mph21.9 kmh 29.73 in1006.8 mb 0.00 in0.0 mm 0.00 in0.0 mm 0.00 in0.0 mm
11:30 PM 43.5°F6.4°C 39.0°F3.9°C 84% 8.0 mph SSE12.9 kmh SSE 13.0 mph20.9 kmh 29.73 in1006.8 mb 0.00 in0.0 mm 0.00 in0.0 mm 0.00 in0.0 mm
11:35 PM 43.5°F6.4°C 39.0°F3.9°C 84% 5.1 mph S8.2 kmh S 9.2 mph14.8 kmh 29.73 in1006.8 mb 0.00 in0.0 mm 0.00 in0.0 mm 0.00 in0.0 mm
11:40 PM 43.7°F6.5°C 39.2°F4.0°C 84% 5.3 mph SSE8.5 kmh SSE 8.3 mph13.4 kmh 29.73 in1006.8 mb 0.00 in0.0 mm 0.00 in0.0 mm 0.00 in0.0 mm
11:45 PM 43.7°F6.5°C 39.2°F4.0°C 84% 4.5 mph S7.2 kmh S 7.6 mph12.2 kmh 29.73 in1006.8 mb 0.00 in0.0 mm 0.00 in0.0 mm 0.00 in0.0 mm
11:50 PM 43.7°F6.5°C 39.2°F4.0°C 84% 4.2 mph SSE6.8 kmh SSE 6.0 mph9.7 kmh 29.72 in1006.4 mb 0.00 in0.0 mm 0.00 in0.0 mm 0.00 in0.0 mm
11:55 PM 43.7°F6.5°C 39.2°F4.0°C 84% 4.2 mph S6.8 kmh S 7.6 mph12.2 kmh 29.72 in1006.4 mb 0.00 in0.0 mm 0.00 in0.0 mm 0.00 in0.0 mm